createdAt,value
2022-08-19T00:04:42.972Z,20.96
2022-08-19T00:09:45.699Z,20.89
2022-08-19T00:14:49.865Z,20.83
2022-08-19T00:19:52.619Z,20.71
2022-08-19T00:24:55.326Z,20.63
2022-08-19T00:30:02.913Z,20.60
2022-08-19T00:35:06.329Z,20.63
2022-08-19T00:40:10.272Z,20.55
2022-08-19T00:45:18.316Z,20.56
2022-08-19T00:50:22.001Z,20.56
2022-08-19T00:55:29.690Z,20.59
2022-08-19T01:00:37.504Z,20.63
2022-08-19T01:05:42.327Z,20.61
2022-08-19T01:10:48.345Z,20.51
2022-08-19T01:15:56.444Z,20.51
2022-08-19T01:21:16.957Z,20.49
2022-08-19T01:26:25.360Z,20.58
2022-08-19T01:31:32.681Z,20.65
2022-08-19T01:36:38.308Z,20.59
2022-08-19T01:41:42.618Z,20.50
2022-08-19T01:46:45.591Z,20.41
2022-08-19T01:51:50.395Z,20.39
2022-08-19T01:56:55.560Z,20.38
2022-08-19T02:01:58.467Z,20.35
2022-08-19T02:07:01.250Z,20.44
2022-08-19T02:12:05.669Z,20.49
2022-08-19T02:17:08.345Z,20.49
2022-08-19T02:22:11.104Z,20.53
2022-08-19T02:27:15.262Z,20.59
2022-08-19T02:32:19.767Z,20.62
2022-08-19T02:37:39.975Z,20.63
2022-08-19T02:42:44.097Z,20.64
2022-08-19T02:47:46.875Z,20.59
2022-08-19T02:52:49.720Z,20.55
2022-08-19T02:57:53.833Z,20.56
2022-08-19T03:02:56.952Z,20.54
2022-08-19T03:07:59.945Z,20.55
2022-08-19T03:13:04.945Z,20.58
2022-08-19T03:18:07.900Z,20.62
2022-08-19T03:23:12.310Z,20.68
2022-08-19T03:28:16.967Z,20.67
2022-08-19T03:33:28.494Z,20.66
2022-08-19T03:38:31.476Z,20.66
2022-08-19T03:43:36.673Z,20.68
2022-08-19T03:48:41.002Z,20.49
2022-08-19T03:53:43.689Z,20.48
2022-08-19T03:58:48.257Z,20.60
2022-08-19T04:03:51.223Z,20.66
2022-08-19T04:08:55.787Z,20.69
2022-08-19T04:14:00.400Z,20.70
2022-08-19T04:19:08.472Z,20.70
2022-08-19T04:24:11.568Z,20.67
2022-08-19T04:29:17.781Z,20.63
2022-08-19T04:34:23.451Z,20.52
2022-08-19T04:39:44.520Z,20.47
2022-08-19T04:44:48.767Z,20.47
2022-08-19T04:49:51.425Z,20.47
2022-08-19T04:54:56.273Z,20.42
2022-08-19T05:00:00.375Z,20.43
2022-08-19T05:05:03.189Z,20.46
2022-08-19T05:10:07.498Z,20.49
2022-08-19T05:15:12.599Z,20.52
2022-08-19T05:20:32.825Z,20.49
2022-08-19T05:25:35.572Z,20.51
2022-08-19T05:30:47.255Z,20.52
2022-08-19T05:35:51.047Z,20.56
2022-08-19T05:40:53.868Z,20.58
2022-08-19T05:45:58.057Z,20.52
2022-08-19T05:51:06.388Z,20.47
2022-08-19T05:56:10.219Z,20.51
2022-08-19T06:01:16.613Z,20.58
2022-08-19T06:06:19.958Z,20.56
2022-08-19T06:11:25.059Z,20.59
2022-08-19T06:16:31.071Z,20.59
2022-08-19T06:21:33.896Z,20.58
2022-08-19T06:26:38.252Z,20.62
2022-08-19T06:31:45.889Z,20.66
2022-08-19T06:36:52.102Z,20.71
2022-08-19T06:41:58.657Z,20.71
2022-08-19T06:47:14.219Z,20.64
2022-08-19T06:52:17.993Z,20.59
2022-08-19T06:57:20.706Z,20.50
2022-08-19T07:02:27.271Z,20.44
2022-08-19T07:07:29.990Z,20.39
2022-08-19T07:12:35.790Z,20.35
2022-08-19T07:17:41.787Z,20.25
2022-08-19T07:22:44.848Z,20.21
2022-08-19T07:27:48.705Z,20.16
2022-08-19T07:32:58.854Z,20.08
2022-08-19T07:38:03.611Z,20.08
2022-08-19T07:43:06.381Z,19.98
2022-08-19T07:48:11.461Z,19.97
2022-08-19T07:53:14.363Z,19.97
2022-08-19T07:58:20.207Z,19.99
2022-08-19T08:03:45.465Z,19.99
2022-08-19T08:09:06.946Z,20.07
2022-08-19T08:14:34.886Z,20.02
2022-08-19T08:19:35.182Z,19.99
2022-08-19T08:24:38.238Z,20.03
2022-08-19T08:29:43.234Z,20.01
2022-08-19T08:34:51.732Z,20.07
2022-08-19T08:39:55.485Z,20.07
2022-08-19T08:45:02.187Z,20.11
2022-08-19T08:50:07.963Z,20.14
2022-08-19T08:55:13.916Z,20.11
2022-08-19T09:00:20.682Z,20.16
2022-08-19T09:05:26.284Z,20.16
2022-08-19T09:10:32.795Z,20.22
2022-08-19T09:15:38.875Z,20.26
2022-08-19T09:20:43.218Z,20.26
2022-08-19T09:25:46.176Z,20.20
2022-08-19T09:30:48.900Z,20.24
2022-08-19T09:36:04.423Z,20.32
2022-08-19T09:41:14.515Z,20.28
2022-08-19T09:46:19.090Z,20.25
2022-08-19T09:51:25.718Z,20.27
2022-08-19T09:56:28.513Z,20.58
2022-08-19T10:01:32.710Z,20.93
2022-08-19T10:06:46.486Z,21.25
2022-08-19T10:11:54.995Z,21.13
2022-08-19T10:16:59.104Z,20.87
2022-08-19T10:22:05.316Z,20.74
2022-08-19T10:27:14.182Z,20.69
2022-08-19T10:32:18.865Z,20.61
2022-08-19T10:37:44.942Z,20.55
2022-08-19T10:42:59.967Z,20.60
2022-08-19T10:48:02.661Z,20.66
2022-08-19T10:53:09.841Z,20.72
2022-08-19T10:58:14.406Z,20.93
2022-08-19T11:03:17.186Z,21.25
2022-08-19T11:08:23.303Z,21.33
2022-08-19T11:13:26.756Z,21.36
2022-08-19T11:18:29.826Z,21.55
2022-08-19T11:23:33.960Z,21.51
2022-08-19T11:28:37.143Z,21.27
2022-08-19T11:33:39.872Z,21.12
2022-08-19T11:38:44.346Z,21.03
2022-08-19T11:43:47.171Z,20.98
2022-08-19T11:48:50.651Z,21.02
2022-08-19T11:53:55.159Z,21.20
2022-08-19T11:58:58.619Z,21.53
2022-08-19T12:04:01.880Z,21.95
2022-08-19T12:09:08.495Z,22.21
2022-08-19T12:14:15.075Z,22.46
2022-08-19T12:19:22.439Z,22.64
2022-08-19T12:24:27.199Z,23.14
2022-08-19T12:29:30.645Z,22.89
2022-08-19T12:34:34.643Z,23.24
2022-08-19T12:39:40.527Z,22.79
2022-08-19T12:44:44.798Z,22.74
2022-08-19T12:49:54.622Z,22.39
2022-08-19T12:55:00.111Z,22.27
2022-08-19T13:00:08.972Z,22.39
2022-08-19T13:05:14.248Z,22.27
2022-08-19T13:10:21.128Z,22.01
2022-08-19T13:15:25.000Z,21.90
2022-08-19T13:20:27.907Z,21.80
2022-08-19T13:25:32.206Z,21.77
2022-08-19T13:30:52.448Z,21.89
2022-08-19T13:36:01.281Z,22.11
2022-08-19T13:41:12.177Z,21.96
2022-08-19T13:46:17.620Z,22.09
2022-08-19T13:51:20.577Z,22.13
2022-08-19T13:56:26.398Z,22.09
2022-08-19T14:01:31.423Z,22.02
2022-08-19T14:06:34.392Z,22.06
2022-08-19T14:11:39.059Z,22.15
2022-08-19T14:16:42.081Z,22.19
2022-08-19T14:21:45.037Z,22.02
2022-08-19T14:26:49.794Z,21.96
2022-08-19T14:31:52.682Z,21.97
2022-08-19T14:36:55.646Z,21.91
2022-08-19T14:42:00.047Z,21.84
2022-08-19T14:47:04.165Z,21.77
2022-08-19T14:52:07.700Z,21.73
2022-08-19T14:57:13.406Z,21.68
2022-08-19T15:02:33.620Z,21.65
2022-08-19T15:07:37.893Z,21.64
2022-08-19T15:12:43.478Z,21.61
2022-08-19T15:17:47.356Z,21.53
2022-08-19T15:22:50.227Z,21.48
2022-08-19T15:27:54.728Z,21.35
2022-08-19T15:32:59.771Z,21.29
2022-08-19T15:38:02.563Z,21.21
2022-08-19T15:43:06.879Z,21.17
2022-08-19T15:48:09.687Z,21.18
2022-08-19T15:53:12.727Z,21.20
2022-08-19T15:58:34.158Z,21.25
2022-08-19T16:03:54.710Z,21.27
2022-08-19T16:08:59.420Z,21.29
2022-08-19T16:14:04.159Z,21.30
2022-08-19T16:19:11.807Z,21.27
2022-08-19T16:24:16.618Z,21.23
2022-08-19T16:29:33.844Z,21.24
2022-08-19T16:34:38.007Z,21.25
2022-08-19T16:39:41.276Z,21.30
2022-08-19T16:44:47.779Z,21.34
2022-08-19T16:49:52.990Z,21.36
2022-08-19T16:54:58.264Z,21.35
2022-08-19T17:00:05.368Z,21.31
2022-08-19T17:05:10.025Z,21.24
2022-08-19T17:10:12.810Z,21.15
2022-08-19T17:15:16.971Z,21.13
2022-08-19T17:20:20.283Z,21.13
2022-08-19T17:25:23.110Z,21.15
2022-08-19T17:30:27.485Z,21.08
2022-08-19T17:35:30.404Z,21.05
2022-08-19T17:40:33.473Z,21.04
2022-08-19T17:45:38.732Z,21.06
2022-08-19T17:50:41.674Z,21.05
2022-08-19T17:55:44.995Z,21.01
2022-08-19T18:00:54.463Z,21.03
2022-08-19T18:05:58.558Z,21.02
2022-08-19T18:11:01.397Z,21.01
2022-08-19T18:16:06.953Z,21.00
2022-08-19T18:21:10.477Z,20.95
2022-08-19T18:26:13.527Z,20.90
2022-08-19T18:31:18.021Z,20.85
2022-08-19T18:36:37.727Z,20.80
2022-08-19T18:42:01.958Z,20.73
2022-08-19T18:47:23.454Z,20.71
2022-08-19T18:52:27.230Z,20.68
2022-08-19T18:57:30.136Z,20.64
2022-08-19T19:02:38.872Z,20.62
2022-08-19T19:07:41.726Z,20.60
2022-08-19T19:12:45.587Z,20.56
2022-08-19T19:17:50.025Z,20.54
2022-08-19T19:22:53.694Z,20.48
2022-08-19T19:28:01.158Z,20.41
2022-08-19T19:33:05.929Z,20.43
2022-08-19T19:38:08.636Z,20.44
2022-08-19T19:43:11.350Z,20.42
2022-08-19T19:48:16.442Z,20.42
2022-08-19T19:53:19.343Z,20.39
2022-08-19T19:58:28.354Z,20.36
2022-08-19T20:03:33.646Z,20.36
2022-08-19T20:08:54.079Z,20.35
2022-08-19T20:13:57.162Z,20.28
2022-08-19T20:19:02.646Z,20.24
2022-08-19T20:24:08.982Z,20.14
2022-08-19T20:29:38.439Z,20.03
2022-08-19T20:34:37.173Z,19.99
2022-08-19T20:39:39.953Z,19.95
2022-08-19T20:44:42.718Z,19.94
2022-08-19T20:49:47.587Z,20.00
2022-08-19T20:54:50.283Z,20.07
2022-08-19T20:59:53.008Z,20.08
2022-08-19T21:05:00.359Z,20.08
2022-08-19T21:10:03.183Z,20.02
2022-08-19T21:15:08.736Z,19.96
2022-08-19T21:20:13.470Z,19.96
2022-08-19T21:25:17.066Z,19.91
2022-08-19T21:30:19.976Z,19.83
2022-08-19T21:35:24.417Z,19.86
2022-08-19T21:40:28.028Z,19.98
2022-08-19T21:45:31.297Z,20.05
2022-08-19T21:50:35.599Z,20.08
2022-08-19T21:55:39.069Z,20.07
2022-08-19T22:00:42.027Z,20.01
2022-08-19T22:05:46.168Z,19.99
2022-08-19T22:10:49.835Z,20.00
2022-08-19T22:15:55.260Z,19.90
2022-08-19T22:20:59.359Z,19.89
2022-08-19T22:26:02.393Z,19.86
2022-08-19T22:31:05.841Z,19.95
2022-08-19T22:36:10.825Z,20.03
2022-08-19T22:41:13.512Z,20.02
2022-08-19T22:46:17.314Z,20.01
2022-08-19T22:51:39.564Z,19.98
2022-08-19T22:56:43.332Z,19.89
2022-08-19T23:01:46.269Z,19.79
2022-08-19T23:06:52.796Z,19.77
2022-08-19T23:11:55.566Z,19.64
2022-08-19T23:16:59.246Z,19.63
2022-08-19T23:22:05.192Z,19.57
2022-08-19T23:27:25.571Z,19.50
2022-08-19T23:32:28.322Z,19.47
2022-08-19T23:37:32.482Z,19.54
2022-08-19T23:42:35.340Z,19.55
2022-08-19T23:47:41.270Z,19.50
2022-08-19T23:52:49.704Z,19.34
2022-08-19T23:57:52.449Z,19.20
